sensor_id;sensor_type;location;lat;lon;timestamp;temperature;humidity
1359;DHT22;673;48.098;14.422;2023-07-08T00:00:15;17.30;86.30
1359;DHT22;673;48.098;14.422;2023-07-08T00:02:42;17.30;87.10
1359;DHT22;673;48.098;14.422;2023-07-08T00:05:12;17.30;87.30
1359;DHT22;673;48.098;14.422;2023-07-08T00:07:40;17.30;87.20
1359;DHT22;673;48.098;14.422;2023-07-08T00:10:16;17.20;87.60
1359;DHT22;673;48.098;14.422;2023-07-08T00:12:45;17.20;87.80
1359;DHT22;673;48.098;14.422;2023-07-08T00:15:12;17.20;88.30
1359;DHT22;673;48.098;14.422;2023-07-08T00:17:40;17.10;88.30
1359;DHT22;673;48.098;14.422;2023-07-08T00:20:18;17.10;88.20
1359;DHT22;673;48.098;14.422;2023-07-08T00:22:46;17.20;88.20
1359;DHT22;673;48.098;14.422;2023-07-08T00:25:15;17.20;88.10
1359;DHT22;673;48.098;14.422;2023-07-08T00:27:42;17.10;89.40
1359;DHT22;673;48.098;14.422;2023-07-08T00:30:19;17.10;89.30
1359;DHT22;673;48.098;14.422;2023-07-08T00:32:47;17.10;88.70
1359;DHT22;673;48.098;14.422;2023-07-08T00:35:21;17.00;89.20
1359;DHT22;673;48.098;14.422;2023-07-08T00:37:50;16.90;90.00
1359;DHT22;673;48.098;14.422;2023-07-08T00:40:19;17.00;90.20
1359;DHT22;673;48.098;14.422;2023-07-08T00:42:48;16.90;90.40
1359;DHT22;673;48.098;14.422;2023-07-08T00:45:21;16.90;90.60
1359;DHT22;673;48.098;14.422;2023-07-08T00:47:53;16.70;91.00
1359;DHT22;673;48.098;14.422;2023-07-08T00:50:23;16.70;91.50
1359;DHT22;673;48.098;14.422;2023-07-08T00:52:50;16.60;91.90
1359;DHT22;673;48.098;14.422;2023-07-08T00:55:17;16.50;92.10
1359;DHT22;673;48.098;14.422;2023-07-08T00:57:45;16.50;92.30
1359;DHT22;673;48.098;14.422;2023-07-08T01:00:14;16.50;92.70
1359;DHT22;673;48.098;14.422;2023-07-08T01:02:44;16.50;92.70
1359;DHT22;673;48.098;14.422;2023-07-08T01:05:15;16.50;92.60
1359;DHT22;673;48.098;14.422;2023-07-08T01:07:48;16.50;92.50
1359;DHT22;673;48.098;14.422;2023-07-08T01:10:22;16.60;92.60
1359;DHT22;673;48.098;14.422;2023-07-08T01:12:53;16.70;91.90
1359;DHT22;673;48.098;14.422;2023-07-08T01:15:23;16.70;91.90
1359;DHT22;673;48.098;14.422;2023-07-08T01:17:54;16.70;91.90
1359;DHT22;673;48.098;14.422;2023-07-08T01:20:22;16.70;92.10
1359;DHT22;673;48.098;14.422;2023-07-08T01:22:50;16.70;92.20
1359;DHT22;673;48.098;14.422;2023-07-08T01:25:17;16.70;92.00
1359;DHT22;673;48.098;14.422;2023-07-08T01:27:46;16.70;91.80
1359;DHT22;673;48.098;14.422;2023-07-08T01:30:15;16.70;91.80
1359;DHT22;673;48.098;14.422;2023-07-08T01:32:47;16.60;91.80
1359;DHT22;673;48.098;14.422;2023-07-08T01:35:15;16.60;92.20
1359;DHT22;673;48.098;14.422;2023-07-08T01:37:46;16.50;92.40
1359;DHT22;673;48.098;14.422;2023-07-08T01:40:24;16.50;93.00
1359;DHT22;673;48.098;14.422;2023-07-08T01:42:51;16.30;93.30
1359;DHT22;673;48.098;14.422;2023-07-08T01:45:21;16.20;93.80
1359;DHT22;673;48.098;14.422;2023-07-08T01:47:51;16.10;94.10
1359;DHT22;673;48.098;14.422;2023-07-08T01:50:20;16.10;94.40
1359;DHT22;673;48.098;14.422;2023-07-08T01:52:48;16.10;94.60
1359;DHT22;673;48.098;14.422;2023-07-08T01:55:22;16.10;94.40
1359;DHT22;673;48.098;14.422;2023-07-08T01:57:51;16.10;94.40
1359;DHT22;673;48.098;14.422;2023-07-08T02:00:19;16.10;94.40
1359;DHT22;673;48.098;14.422;2023-07-08T02:02:46;16.10;94.50
1359;DHT22;673;48.098;14.422;2023-07-08T02:05:14;16.10;94.50
1359;DHT22;673;48.098;14.422;2023-07-08T02:07:40;16.10;94.50
1359;DHT22;673;48.098;14.422;2023-07-08T02:10:08;16.10;94.90
1359;DHT22;673;48.098;14.422;2023-07-08T02:12:37;16.00;94.90
1359;DHT22;673;48.098;14.422;2023-07-08T02:15:05;16.00;94.80
1359;DHT22;673;48.098;14.422;2023-07-08T02:17:32;16.00;95.00
1359;DHT22;673;48.098;14.422;2023-07-08T02:19:59;16.00;94.90
1359;DHT22;673;48.098;14.422;2023-07-08T02:22:26;16.00;95.10
1359;DHT22;673;48.098;14.422;2023-07-08T02:24:53;16.00;95.30
1359;DHT22;673;48.098;14.422;2023-07-08T02:27:20;16.00;95.00
1359;DHT22;673;48.098;14.422;2023-07-08T02:29:48;15.90;95.30
1359;DHT22;673;48.098;14.422;2023-07-08T02:32:17;16.00;94.70
1359;DHT22;673;48.098;14.422;2023-07-08T02:34:44;16.00;95.00
1359;DHT22;673;48.098;14.422;2023-07-08T02:37:10;16.00;96.00
1359;DHT22;673;48.098;14.422;2023-07-08T02:39:38;15.90;96.20
1359;DHT22;673;48.098;14.422;2023-07-08T02:42:04;15.80;96.20
1359;DHT22;673;48.098;14.422;2023-07-08T02:44:31;15.70;96.20
1359;DHT22;673;48.098;14.422;2023-07-08T02:47:00;15.70;96.60
1359;DHT22;673;48.098;14.422;2023-07-08T02:49:27;15.60;96.60
1359;DHT22;673;48.098;14.422;2023-07-08T02:51:54;15.70;96.20
1359;DHT22;673;48.098;14.422;2023-07-08T02:54:21;15.70;96.00
1359;DHT22;673;48.098;14.422;2023-07-08T02:56:48;15.70;95.70
1359;DHT22;673;48.098;14.422;2023-07-08T02:59:14;15.80;95.60
1359;DHT22;673;48.098;14.422;2023-07-08T03:01:41;15.80;95.50
1359;DHT22;673;48.098;14.422;2023-07-08T03:04:10;15.70;95.80
1359;DHT22;673;48.098;14.422;2023-07-08T03:06:39;15.80;95.60
1359;DHT22;673;48.098;14.422;2023-07-08T03:09:06;15.70;95.80
1359;DHT22;673;48.098;14.422;2023-07-08T03:11:34;15.80;95.40
1359;DHT22;673;48.098;14.422;2023-07-08T03:14:01;15.80;95.60
1359;DHT22;673;48.098;14.422;2023-07-08T03:16:28;15.80;95.50
1359;DHT22;673;48.098;14.422;2023-07-08T03:18:55;15.80;95.40
1359;DHT22;673;48.098;14.422;2023-07-08T03:21:24;15.80;95.60
1359;DHT22;673;48.098;14.422;2023-07-08T03:23:51;15.80;95.70
1359;DHT22;673;48.098;14.422;2023-07-08T03:26:20;15.80;95.80
1359;DHT22;673;48.098;14.422;2023-07-08T03:28:48;15.80;95.60
1359;DHT22;673;48.098;14.422;2023-07-08T03:31:15;15.80;95.60
1359;DHT22;673;48.098;14.422;2023-07-08T03:33:43;15.80;95.60
1359;DHT22;673;48.098;14.422;2023-07-08T03:36:12;15.80;95.70
1359;DHT22;673;48.098;14.422;2023-07-08T03:38:43;15.80;95.60
1359;DHT22;673;48.098;14.422;2023-07-08T03:41:10;15.90;95.20
1359;DHT22;673;48.098;14.422;2023-07-08T03:43:37;15.90;95.30
1359;DHT22;673;48.098;14.422;2023-07-08T03:46:04;15.90;95.00
1359;DHT22;673;48.098;14.422;2023-07-08T03:48:31;15.90;95.10
1359;DHT22;673;48.098;14.422;2023-07-08T03:50:58;16.00;94.60
1359;DHT22;673;48.098;14.422;2023-07-08T03:53:25;15.90;95.50
1359;DHT22;673;48.098;14.422;2023-07-08T03:55:53;15.90;95.50
1359;DHT22;673;48.098;14.422;2023-07-08T03:58:20;16.00;95.30
1359;DHT22;673;48.098;14.422;2023-07-08T04:00:47;16.00;95.00
1359;DHT22;673;48.098;14.422;2023-07-08T04:03:14;16.10;95.10
1359;DHT22;673;48.098;14.422;2023-07-08T04:05:41;16.10;94.80
1359;DHT22;673;48.098;14.422;2023-07-08T04:08:08;16.20;95.10
1359;DHT22;673;48.098;14.422;2023-07-08T04:10:35;16.20;94.40
1359;DHT22;673;48.098;14.422;2023-07-08T04:13:03;16.30;94.10
1359;DHT22;673;48.098;14.422;2023-07-08T04:15:30;16.30;94.10
1359;DHT22;673;48.098;14.422;2023-07-08T04:17:57;16.30;94.30
1359;DHT22;673;48.098;14.422;2023-07-08T04:20:24;16.40;94.40
1359;DHT22;673;48.098;14.422;2023-07-08T04:22:51;16.40;93.80
1359;DHT22;673;48.098;14.422;2023-07-08T04:25:19;16.50;93.60
1359;DHT22;673;48.098;14.422;2023-07-08T04:27:46;16.50;93.30
1359;DHT22;673;48.098;14.422;2023-07-08T04:30:21;16.60;93.60
1359;DHT22;673;48.098;14.422;2023-07-08T04:32:50;16.70;93.80
1359;DHT22;673;48.098;14.422;2023-07-08T04:35:17;16.80;93.30
1359;DHT22;673;48.098;14.422;2023-07-08T04:37:44;17.10;93.00
1359;DHT22;673;48.098;14.422;2023-07-08T04:40:17;17.30;92.20
1359;DHT22;673;48.098;14.422;2023-07-08T04:42:45;17.50;91.50
1359;DHT22;673;48.098;14.422;2023-07-08T04:45:16;17.40;91.40
1359;DHT22;673;48.098;14.422;2023-07-08T04:47:43;17.50;91.40
1359;DHT22;673;48.098;14.422;2023-07-08T04:50:12;17.70;91.10
1359;DHT22;673;48.098;14.422;2023-07-08T04:52:39;17.80;90.40
1359;DHT22;673;48.098;14.422;2023-07-08T04:55:07;17.90;90.60
1359;DHT22;673;48.098;14.422;2023-07-08T04:57:35;18.10;89.80
1359;DHT22;673;48.098;14.422;2023-07-08T05:00:03;18.10;87.90
1359;DHT22;673;48.098;14.422;2023-07-08T05:02:34;18.10;86.60
1359;DHT22;673;48.098;14.422;2023-07-08T05:05:02;18.10;87.90
1359;DHT22;673;48.098;14.422;2023-07-08T05:07:29;18.30;87.30
1359;DHT22;673;48.098;14.422;2023-07-08T05:09:56;18.50;85.40
1359;DHT22;673;48.098;14.422;2023-07-08T05:12:23;18.60;84.40
1359;DHT22;673;48.098;14.422;2023-07-08T05:14:49;18.80;84.00
1359;DHT22;673;48.098;14.422;2023-07-08T05:17:16;19.00;84.30
1359;DHT22;673;48.098;14.422;2023-07-08T05:19:45;19.10;83.20
1359;DHT22;673;48.098;14.422;2023-07-08T05:22:15;19.20;83.00
1359;DHT22;673;48.098;14.422;2023-07-08T05:24:43;19.40;82.70
1359;DHT22;673;48.098;14.422;2023-07-08T05:27:10;19.60;81.20
1359;DHT22;673;48.098;14.422;2023-07-08T05:29:39;19.70;80.00
1359;DHT22;673;48.098;14.422;2023-07-08T05:32:07;19.70;78.20
1359;DHT22;673;48.098;14.422;2023-07-08T05:34:34;19.70;80.00
1359;DHT22;673;48.098;14.422;2023-07-08T05:37:02;19.80;80.40
1359;DHT22;673;48.098;14.422;2023-07-08T05:39:29;20.10;80.40
1359;DHT22;673;48.098;14.422;2023-07-08T05:41:56;20.20;78.00
1359;DHT22;673;48.098;14.422;2023-07-08T05:44:24;20.00;76.20
1359;DHT22;673;48.098;14.422;2023-07-08T05:46:51;19.90;76.60
1359;DHT22;673;48.098;14.422;2023-07-08T05:49:18;20.10;76.40
1359;DHT22;673;48.098;14.422;2023-07-08T05:51:45;20.20;76.10
1359;DHT22;673;48.098;14.422;2023-07-08T05:54:14;20.20;75.80
1359;DHT22;673;48.098;14.422;2023-07-08T05:56:41;20.10;76.20
1359;DHT22;673;48.098;14.422;2023-07-08T05:59:08;20.00;75.70
1359;DHT22;673;48.098;14.422;2023-07-08T06:01:35;20.00;76.50
1359;DHT22;673;48.098;14.422;2023-07-08T06:04:02;20.20;75.80
1359;DHT22;673;48.098;14.422;2023-07-08T06:06:30;20.20;74.80
1359;DHT22;673;48.098;14.422;2023-07-08T06:08:57;20.00;76.50
1359;DHT22;673;48.098;14.422;2023-07-08T06:11:27;20.10;78.30
1359;DHT22;673;48.098;14.422;2023-07-08T06:13:54;20.30;78.40
1359;DHT22;673;48.098;14.422;2023-07-08T06:16:21;20.20;75.90
1359;DHT22;673;48.098;14.422;2023-07-08T06:18:48;20.30;76.70
1359;DHT22;673;48.098;14.422;2023-07-08T06:21:15;20.60;76.70
1359;DHT22;673;48.098;14.422;2023-07-08T06:23:42;20.70;76.20
1359;DHT22;673;48.098;14.422;2023-07-08T06:26:08;20.50;76.10
1359;DHT22;673;48.098;14.422;2023-07-08T06:28:37;20.50;78.60
1359;DHT22;673;48.098;14.422;2023-07-08T06:31:04;20.60;75.40
1359;DHT22;673;48.098;14.422;2023-07-08T06:33:31;20.70;77.30
1359;DHT22;673;48.098;14.422;2023-07-08T06:35:58;20.70;76.50
1359;DHT22;673;48.098;14.422;2023-07-08T06:38:24;20.80;77.70
1359;DHT22;673;48.098;14.422;2023-07-08T06:40:51;21.20;76.20
1359;DHT22;673;48.098;14.422;2023-07-08T06:43:18;21.60;74.10
1359;DHT22;673;48.098;14.422;2023-07-08T06:45:47;21.70;70.70
1359;DHT22;673;48.098;14.422;2023-07-08T06:48:13;22.10;70.00
1359;DHT22;673;48.098;14.422;2023-07-08T06:50:42;22.00;66.70
1359;DHT22;673;48.098;14.422;2023-07-08T06:53:09;22.10;66.50
1359;DHT22;673;48.098;14.422;2023-07-08T06:55:36;22.50;68.80
1359;DHT22;673;48.098;14.422;2023-07-08T06:58:03;22.50;67.80
1359;DHT22;673;48.098;14.422;2023-07-08T07:00:30;22.50;64.60
1359;DHT22;673;48.098;14.422;2023-07-08T07:02:58;22.60;65.00
1359;DHT22;673;48.098;14.422;2023-07-08T07:05:25;23.00;63.90
1359;DHT22;673;48.098;14.422;2023-07-08T07:07:52;23.10;62.90
1359;DHT22;673;48.098;14.422;2023-07-08T07:10:19;23.30;63.80
1359;DHT22;673;48.098;14.422;2023-07-08T07:12:46;23.30;59.60
1359;DHT22;673;48.098;14.422;2023-07-08T07:15:14;23.40;61.00
1359;DHT22;673;48.098;14.422;2023-07-08T07:17:40;23.50;62.70
1359;DHT22;673;48.098;14.422;2023-07-08T07:20:10;23.80;59.90
1359;DHT22;673;48.098;14.422;2023-07-08T07:22:37;24.00;59.20
1359;DHT22;673;48.098;14.422;2023-07-08T07:25:05;24.30;59.40
1359;DHT22;673;48.098;14.422;2023-07-08T07:27:32;24.50;59.40
1359;DHT22;673;48.098;14.422;2023-07-08T07:29:59;24.40;56.80
1359;DHT22;673;48.098;14.422;2023-07-08T07:32:26;24.50;58.80
1359;DHT22;673;48.098;14.422;2023-07-08T07:34:55;24.30;58.00
1359;DHT22;673;48.098;14.422;2023-07-08T07:37:24;24.30;58.60
1359;DHT22;673;48.098;14.422;2023-07-08T07:39:51;24.50;58.70
1359;DHT22;673;48.098;14.422;2023-07-08T07:42:19;24.40;57.00
1359;DHT22;673;48.098;14.422;2023-07-08T07:44:46;24.70;56.60
1359;DHT22;673;48.098;14.422;2023-07-08T07:47:13;24.60;56.40
1359;DHT22;673;48.098;14.422;2023-07-08T07:49:40;24.70;56.50
1359;DHT22;673;48.098;14.422;2023-07-08T07:52:07;25.00;55.70
1359;DHT22;673;48.098;14.422;2023-07-08T07:54:37;25.10;54.50
1359;DHT22;673;48.098;14.422;2023-07-08T07:57:05;24.90;53.40
1359;DHT22;673;48.098;14.422;2023-07-08T07:59:32;24.80;55.50
1359;DHT22;673;48.098;14.422;2023-07-08T08:01:59;24.70;54.30
1359;DHT22;673;48.098;14.422;2023-07-08T08:04:26;24.90;56.00
1359;DHT22;673;48.098;14.422;2023-07-08T08:06:53;25.20;54.80
1359;DHT22;673;48.098;14.422;2023-07-08T08:09:20;25.40;53.90
1359;DHT22;673;48.098;14.422;2023-07-08T08:11:49;25.40;52.90
1359;DHT22;673;48.098;14.422;2023-07-08T08:14:17;25.60;53.80
1359;DHT22;673;48.098;14.422;2023-07-08T08:16:44;26.20;54.70
1359;DHT22;673;48.098;14.422;2023-07-08T08:19:11;26.00;52.40
1359;DHT22;673;48.098;14.422;2023-07-08T08:21:38;26.20;51.30
1359;DHT22;673;48.098;14.422;2023-07-08T08:24:05;26.10;51.00
1359;DHT22;673;48.098;14.422;2023-07-08T08:26:32;26.30;50.20
1359;DHT22;673;48.098;14.422;2023-07-08T08:29:00;26.40;52.30
1359;DHT22;673;48.098;14.422;2023-07-08T08:31:28;26.60;50.70
1359;DHT22;673;48.098;14.422;2023-07-08T08:33:56;26.50;48.00
1359;DHT22;673;48.098;14.422;2023-07-08T08:36:23;26.40;49.30
1359;DHT22;673;48.098;14.422;2023-07-08T08:38:50;26.60;50.60
1359;DHT22;673;48.098;14.422;2023-07-08T08:41:19;26.80;46.90
1359;DHT22;673;48.098;14.422;2023-07-08T08:43:48;26.70;50.50
1359;DHT22;673;48.098;14.422;2023-07-08T08:46:26;26.90;46.30
1359;DHT22;673;48.098;14.422;2023-07-08T08:48:59;27.10;46.40
1359;DHT22;673;48.098;14.422;2023-07-08T08:51:27;27.20;46.40
1359;DHT22;673;48.098;14.422;2023-07-08T08:53:57;27.30;46.30
1359;DHT22;673;48.098;14.422;2023-07-08T08:56:27;27.30;47.90
1359;DHT22;673;48.098;14.422;2023-07-08T08:58:58;27.30;47.00
1359;DHT22;673;48.098;14.422;2023-07-08T09:01:29;27.70;47.30
1359;DHT22;673;48.098;14.422;2023-07-08T09:03:59;27.30;44.60
1359;DHT22;673;48.098;14.422;2023-07-08T09:06:29;27.30;45.20
1359;DHT22;673;48.098;14.422;2023-07-08T09:09:01;27.40;47.10
1359;DHT22;673;48.098;14.422;2023-07-08T09:11:39;27.70;45.00
1359;DHT22;673;48.098;14.422;2023-07-08T09:14:14;27.50;41.20
1359;DHT22;673;48.098;14.422;2023-07-08T09:16:46;27.70;44.00
1359;DHT22;673;48.098;14.422;2023-07-08T09:19:22;27.90;41.70
1359;DHT22;673;48.098;14.422;2023-07-08T09:21:53;27.80;42.40
1359;DHT22;673;48.098;14.422;2023-07-08T09:24:29;27.60;41.00
1359;DHT22;673;48.098;14.422;2023-07-08T09:27:01;27.50;41.60
1359;DHT22;673;48.098;14.422;2023-07-08T09:29:28;27.70;41.30
1359;DHT22;673;48.098;14.422;2023-07-08T09:31:57;27.60;41.30
1359;DHT22;673;48.098;14.422;2023-07-08T09:34:36;27.40;40.70
1359;DHT22;673;48.098;14.422;2023-07-08T09:37:23;27.80;40.70
1359;DHT22;673;48.098;14.422;2023-07-08T09:39:51;27.90;38.30
1359;DHT22;673;48.098;14.422;2023-07-08T09:42:19;28.10;38.90
1359;DHT22;673;48.098;14.422;2023-07-08T09:44:47;28.10;37.80
1359;DHT22;673;48.098;14.422;2023-07-08T09:47:22;28.20;40.70
1359;DHT22;673;48.098;14.422;2023-07-08T09:49:52;28.80;38.70
1359;DHT22;673;48.098;14.422;2023-07-08T09:52:19;28.20;37.10
1359;DHT22;673;48.098;14.422;2023-07-08T09:54:47;28.00;36.00
1359;DHT22;673;48.098;14.422;2023-07-08T09:57:21;28.30;36.40
1359;DHT22;673;48.098;14.422;2023-07-08T09:59:54;28.30;36.20
1359;DHT22;673;48.098;14.422;2023-07-08T10:02:29;28.50;34.30
1359;DHT22;673;48.098;14.422;2023-07-08T10:04:57;28.90;34.90
1359;DHT22;673;48.098;14.422;2023-07-08T10:07:28;28.60;36.20
1359;DHT22;673;48.098;14.422;2023-07-08T10:09:58;29.20;35.70
1359;DHT22;673;48.098;14.422;2023-07-08T10:12:26;29.60;36.00
1359;DHT22;673;48.098;14.422;2023-07-08T10:14:57;29.70;33.90
1359;DHT22;673;48.098;14.422;2023-07-08T10:17:26;30.10;36.60
1359;DHT22;673;48.098;14.422;2023-07-08T10:19:55;30.80;31.40
1359;DHT22;673;48.098;14.422;2023-07-08T10:22:38;30.40;29.70
1359;DHT22;673;48.098;14.422;2023-07-08T10:25:21;31.00;33.40
1359;DHT22;673;48.098;14.422;2023-07-08T10:27:57;31.00;31.60
1359;DHT22;673;48.098;14.422;2023-07-08T10:30:32;30.80;32.40
1359;DHT22;673;48.098;14.422;2023-07-08T10:36:23;31.10;31.60
1359;DHT22;673;48.098;14.422;2023-07-08T10:39:05;31.20;32.60
1359;DHT22;673;48.098;14.422;2023-07-08T10:41:46;30.90;30.70
1359;DHT22;673;48.098;14.422;2023-07-08T10:44:22;30.80;30.20
1359;DHT22;673;48.098;14.422;2023-07-08T10:46:58;31.00;32.40
1359;DHT22;673;48.098;14.422;2023-07-08T10:49:49;31.30;29.00
1359;DHT22;673;48.098;14.422;2023-07-08T10:55:28;30.90;31.20
1359;DHT22;673;48.098;14.422;2023-07-08T10:58:20;31.00;28.70
1359;DHT22;673;48.098;14.422;2023-07-08T11:00:58;31.30;29.00
1359;DHT22;673;48.098;14.422;2023-07-08T11:04:01;31.40;28.50
1359;DHT22;673;48.098;14.422;2023-07-08T11:06:40;30.90;30.00
1359;DHT22;673;48.098;14.422;2023-07-08T11:09:16;31.40;29.30
1359;DHT22;673;48.098;14.422;2023-07-08T11:11:49;31.90;29.90
1359;DHT22;673;48.098;14.422;2023-07-08T11:14:21;31.90;29.20
1359;DHT22;673;48.098;14.422;2023-07-08T11:16:55;31.60;28.60
1359;DHT22;673;48.098;14.422;2023-07-08T11:19:26;31.60;29.00
1359;DHT22;673;48.098;14.422;2023-07-08T11:22:00;31.70;28.10
1359;DHT22;673;48.098;14.422;2023-07-08T11:24:34;31.90;26.80
1359;DHT22;673;48.098;14.422;2023-07-08T11:27:06;31.90;27.90
1359;DHT22;673;48.098;14.422;2023-07-08T11:29:39;32.30;26.80
1359;DHT22;673;48.098;14.422;2023-07-08T11:32:10;31.90;26.40
1359;DHT22;673;48.098;14.422;2023-07-08T11:34:40;31.60;25.30
1359;DHT22;673;48.098;14.422;2023-07-08T11:37:08;31.40;27.40
1359;DHT22;673;48.098;14.422;2023-07-08T11:39:42;30.90;26.40
1359;DHT22;673;48.098;14.422;2023-07-08T11:42:18;31.30;26.40
1359;DHT22;673;48.098;14.422;2023-07-08T11:44:50;31.40;23.50
1359;DHT22;673;48.098;14.422;2023-07-08T11:47:24;31.50;23.40
1359;DHT22;673;48.098;14.422;2023-07-08T11:49:52;31.60;26.00
1359;DHT22;673;48.098;14.422;2023-07-08T11:52:21;31.10;24.40
1359;DHT22;673;48.098;14.422;2023-07-08T11:54:59;31.20;25.70
1359;DHT22;673;48.098;14.422;2023-07-08T11:57:34;31.50;24.10
1359;DHT22;673;48.098;14.422;2023-07-08T12:00:17;31.80;23.60
1359;DHT22;673;48.098;14.422;2023-07-08T12:02:50;31.90;24.40
1359;DHT22;673;48.098;14.422;2023-07-08T12:05:29;32.10;24.80
1359;DHT22;673;48.098;14.422;2023-07-08T12:07:58;32.40;24.60
1359;DHT22;673;48.098;14.422;2023-07-08T12:10:32;32.20;25.70
1359;DHT22;673;48.098;14.422;2023-07-08T12:12:59;31.40;25.90
1359;DHT22;673;48.098;14.422;2023-07-08T12:15:28;31.40;23.20
1359;DHT22;673;48.098;14.422;2023-07-08T12:17:58;31.40;25.30
1359;DHT22;673;48.098;14.422;2023-07-08T12:20:28;31.80;25.80
1359;DHT22;673;48.098;14.422;2023-07-08T12:22:55;31.60;24.50
1359;DHT22;673;48.098;14.422;2023-07-08T12:25:29;31.60;25.50
1359;DHT22;673;48.098;14.422;2023-07-08T12:27:58;32.10;23.70
1359;DHT22;673;48.098;14.422;2023-07-08T12:30:27;32.30;22.40
1359;DHT22;673;48.098;14.422;2023-07-08T12:32:55;33.00;25.00
1359;DHT22;673;48.098;14.422;2023-07-08T12:35:27;33.20;22.80
1359;DHT22;673;48.098;14.422;2023-07-08T12:37:58;32.20;23.00
1359;DHT22;673;48.098;14.422;2023-07-08T12:40:28;31.70;22.70
1359;DHT22;673;48.098;14.422;2023-07-08T12:42:56;31.40;25.20
1359;DHT22;673;48.098;14.422;2023-07-08T12:45:26;31.60;22.70
1359;DHT22;673;48.098;14.422;2023-07-08T12:47:53;32.10;21.90
1359;DHT22;673;48.098;14.422;2023-07-08T12:50:20;32.20;22.60
1359;DHT22;673;48.098;14.422;2023-07-08T12:52:47;32.00;23.80
1359;DHT22;673;48.098;14.422;2023-07-08T12:55:15;32.00;24.50
1359;DHT22;673;48.098;14.422;2023-07-08T12:57:47;32.40;25.40
1359;DHT22;673;48.098;14.422;2023-07-08T13:00:19;32.70;24.00
1359;DHT22;673;48.098;14.422;2023-07-08T13:02:53;31.80;22.60
1359;DHT22;673;48.098;14.422;2023-07-08T13:05:22;31.60;23.20
1359;DHT22;673;48.098;14.422;2023-07-08T13:07:51;31.60;22.50
1359;DHT22;673;48.098;14.422;2023-07-08T13:10:20;31.80;22.60
1359;DHT22;673;48.098;14.422;2023-07-08T13:12:52;31.50;24.10
1359;DHT22;673;48.098;14.422;2023-07-08T13:15:28;31.40;23.20
1359;DHT22;673;48.098;14.422;2023-07-08T13:17:56;31.80;23.20
1359;DHT22;673;48.098;14.422;2023-07-08T13:20:24;32.40;21.20
1359;DHT22;673;48.098;14.422;2023-07-08T13:22:56;32.40;22.50
1359;DHT22;673;48.098;14.422;2023-07-08T13:25:27;32.30;20.50
1359;DHT22;673;48.098;14.422;2023-07-08T13:27:57;32.40;21.00
1359;DHT22;673;48.098;14.422;2023-07-08T13:30:27;32.80;24.30
1359;DHT22;673;48.098;14.422;2023-07-08T13:32:54;32.70;21.40
1359;DHT22;673;48.098;14.422;2023-07-08T13:35:23;32.70;22.40
1359;DHT22;673;48.098;14.422;2023-07-08T13:37:50;32.30;23.60
1359;DHT22;673;48.098;14.422;2023-07-08T13:40:17;32.30;24.10
1359;DHT22;673;48.098;14.422;2023-07-08T13:42:49;31.80;22.40
1359;DHT22;673;48.098;14.422;2023-07-08T13:45:23;31.60;21.50
1359;DHT22;673;48.098;14.422;2023-07-08T13:48:11;32.20;21.10
1359;DHT22;673;48.098;14.422;2023-07-08T13:50:44;32.50;22.60
1359;DHT22;673;48.098;14.422;2023-07-08T13:53:21;32.50;20.00
1359;DHT22;673;48.098;14.422;2023-07-08T13:55:55;32.50;20.80
1359;DHT22;673;48.098;14.422;2023-07-08T13:58:27;32.20;20.10
1359;DHT22;673;48.098;14.422;2023-07-08T14:00:57;32.00;23.10
1359;DHT22;673;48.098;14.422;2023-07-08T14:03:24;32.60;22.30
1359;DHT22;673;48.098;14.422;2023-07-08T14:05:52;32.90;20.90
1359;DHT22;673;48.098;14.422;2023-07-08T14:08:19;32.90;22.20
1359;DHT22;673;48.098;14.422;2023-07-08T14:10:47;32.90;20.40
1359;DHT22;673;48.098;14.422;2023-07-08T14:13:14;32.40;21.20
1359;DHT22;673;48.098;14.422;2023-07-08T14:15:43;32.00;21.80
1359;DHT22;673;48.098;14.422;2023-07-08T14:18:13;31.90;20.90
1359;DHT22;673;48.098;14.422;2023-07-08T14:20:40;32.00;20.50
1359;DHT22;673;48.098;14.422;2023-07-08T14:23:09;32.30;19.70
1359;DHT22;673;48.098;14.422;2023-07-08T14:25:38;32.10;19.60
1359;DHT22;673;48.098;14.422;2023-07-08T14:28:05;32.60;20.60
1359;DHT22;673;48.098;14.422;2023-07-08T14:30:33;32.70;19.10
1359;DHT22;673;48.098;14.422;2023-07-08T14:33:01;32.70;21.10
1359;DHT22;673;48.098;14.422;2023-07-08T14:35:29;32.30;18.80
1359;DHT22;673;48.098;14.422;2023-07-08T14:37:56;32.70;20.90
1359;DHT22;673;48.098;14.422;2023-07-08T14:40:27;32.40;19.30
1359;DHT22;673;48.098;14.422;2023-07-08T14:42:58;32.90;18.00
1359;DHT22;673;48.098;14.422;2023-07-08T14:45:29;33.30;18.40
1359;DHT22;673;48.098;14.422;2023-07-08T14:47:56;32.60;18.00
1359;DHT22;673;48.098;14.422;2023-07-08T14:50:24;32.70;18.50
1359;DHT22;673;48.098;14.422;2023-07-08T14:52:56;32.70;18.80
1359;DHT22;673;48.098;14.422;2023-07-08T14:55:23;32.90;17.70
1359;DHT22;673;48.098;14.422;2023-07-08T14:57:50;32.30;17.00
1359;DHT22;673;48.098;14.422;2023-07-08T15:00:19;32.30;17.50
1359;DHT22;673;48.098;14.422;2023-07-08T15:02:48;32.20;17.30
1359;DHT22;673;48.098;14.422;2023-07-08T15:05:17;32.30;17.00
1359;DHT22;673;48.098;14.422;2023-07-08T15:07:48;32.20;16.90
1359;DHT22;673;48.098;14.422;2023-07-08T15:10:17;32.30;17.00
1359;DHT22;673;48.098;14.422;2023-07-08T15:12:45;31.90;18.20
1359;DHT22;673;48.098;14.422;2023-07-08T15:15:18;31.90;17.50
1359;DHT22;673;48.098;14.422;2023-07-08T15:17:47;32.00;18.90
1359;DHT22;673;48.098;14.422;2023-07-08T15:20:15;32.20;17.30
1359;DHT22;673;48.098;14.422;2023-07-08T15:22:42;32.40;16.50
1359;DHT22;673;48.098;14.422;2023-07-08T15:25:11;32.40;16.30
1359;DHT22;673;48.098;14.422;2023-07-08T15:27:40;32.40;16.40
1359;DHT22;673;48.098;14.422;2023-07-08T15:30:15;32.50;15.80
1359;DHT22;673;48.098;14.422;2023-07-08T15:32:43;32.70;17.40
1359;DHT22;673;48.098;14.422;2023-07-08T15:35:15;32.90;17.00
1359;DHT22;673;48.098;14.422;2023-07-08T15:37:43;32.90;16.20
1359;DHT22;673;48.098;14.422;2023-07-08T15:40:13;32.70;15.30
1359;DHT22;673;48.098;14.422;2023-07-08T15:42:42;33.10;14.60
1359;DHT22;673;48.098;14.422;2023-07-08T15:45:13;33.50;14.90
1359;DHT22;673;48.098;14.422;2023-07-08T15:47:41;33.90;13.90
1359;DHT22;673;48.098;14.422;2023-07-08T15:50:11;33.80;13.50
1359;DHT22;673;48.098;14.422;2023-07-08T15:52:38;33.30;13.80
1359;DHT22;673;48.098;14.422;2023-07-08T15:55:06;33.30;14.10
1359;DHT22;673;48.098;14.422;2023-07-08T15:57:35;33.40;14.20
1359;DHT22;673;48.098;14.422;2023-07-08T16:00:08;33.30;14.20
1359;DHT22;673;48.098;14.422;2023-07-08T16:02:36;34.00;14.60
1359;DHT22;673;48.098;14.422;2023-07-08T16:05:03;34.60;14.00
1359;DHT22;673;48.098;14.422;2023-07-08T16:07:31;35.00;12.70
1359;DHT22;673;48.098;14.422;2023-07-08T16:10:01;34.40;12.90
1359;DHT22;673;48.098;14.422;2023-07-08T16:12:28;34.80;14.00
1359;DHT22;673;48.098;14.422;2023-07-08T16:14:55;34.40;13.60
1359;DHT22;673;48.098;14.422;2023-07-08T16:17:24;34.50;13.10
1359;DHT22;673;48.098;14.422;2023-07-08T16:19:51;35.10;12.90
1359;DHT22;673;48.098;14.422;2023-07-08T16:22:17;35.10;12.00